Time;durP1;ratioP1;P1;durP2;ratioP2;P2;SDS_P1;SDS_P2;PMS_P1;PMS_P2;Temp;Humidity;BMP_temperature;BMP_pressure;BME280_temperature;BME280_humidity;BME280_pressure;Samples;Min_cycle;Max_cycle;Signal;HPM_P1;HPM_P2
2022/12/13 00:01:28;;;;;;;98.53;34.80;;;-5.40;99.90;;;;;;5053791;28;20399;-28
2022/12/13 00:03:59;;;;;;;117.20;39.43;;;-5.40;99.90;;;;;;5053709;28;20051;-27
2022/12/13 00:06:26;;;;;;;118.17;41.90;;;-5.40;99.90;;;;;;5053138;28;20130;-28
2022/12/13 00:08:52;;;;;;;106.93;36.40;;;-5.40;99.90;;;;;;5053038;28;20037;-27
2022/12/13 00:11:18;;;;;;;94.53;32.90;;;-5.40;99.90;;;;;;5052970;28;20060;-28
2022/12/13 00:13:46;;;;;;;106.70;34.90;;;-5.50;99.90;;;;;;5053813;28;20063;-28
2022/12/13 00:16:23;;;;;;;88.83;30.97;;;-5.50;99.90;;;;;;5052429;28;20110;-27
2022/12/13 00:18:54;;;;;;;89.37;32.63;;;-5.50;99.90;;;;;;5054449;28;20414;-28
2022/12/13 00:21:23;;;;;;;88.83;30.77;;;-5.60;99.90;;;;;;5054361;28;20048;-28
2022/12/13 00:23:48;;;;;;;93.17;31.63;;;-5.60;99.90;;;;;;5036162;28;20399;-27
2022/12/13 00:26:20;;;;;;;89.10;32.07;;;-5.60;99.90;;;;;;5053497;28;20041;-27
2022/12/13 00:28:48;;;;;;;88.47;31.67;;;-5.60;99.90;;;;;;5052055;28;20057;-28
2022/12/13 00:31:14;;;;;;;85.23;31.17;;;-5.60;99.90;;;;;;5053714;28;20128;-27
2022/12/13 00:33:40;;;;;;;94.87;31.40;;;-5.60;99.90;;;;;;5053416;28;20045;-28
2022/12/13 00:36:07;;;;;;;87.67;33.03;;;-5.60;99.90;;;;;;5052237;28;20403;-27
2022/12/13 00:38:34;;;;;;;83.40;31.23;;;-5.70;99.90;;;;;;5053904;28;20106;-27
2022/12/13 00:41:16;;;;;;;90.97;32.83;;;-5.70;99.90;;;;;;5053548;28;20120;-28
2022/12/13 00:43:42;;;;;;;97.27;32.47;;;-5.60;99.90;;;;;;5054175;28;20410;-29
2022/12/13 00:46:15;;;;;;;91.63;34.10;;;-5.60;99.90;;;;;;5053011;28;20479;-27
2022/12/13 00:48:41;;;;;;;85.97;31.93;;;-5.50;99.90;;;;;;5054239;28;20041;-28
2022/12/13 00:51:08;;;;;;;96.10;33.07;;;-5.50;99.90;;;;;;5053100;28;20288;-27
2022/12/13 00:53:35;;;;;;;95.60;32.73;;;-5.50;99.90;;;;;;5053225;28;20084;-27
2022/12/13 00:56:01;;;;;;;93.00;33.17;;;-5.40;99.90;;;;;;5052257;28;20055;-27
2022/12/13 00:58:27;;;;;;;90.80;33.30;;;-5.40;99.90;;;;;;5053218;28;20045;-28
2022/12/13 01:01:00;;;;;;;99.40;34.47;;;-5.40;99.90;;;;;;5051876;28;20099;-27
2022/12/13 01:03:26;;;;;;;95.00;33.00;;;-5.40;99.90;;;;;;5051998;28;20045;-27
2022/12/13 01:05:51;;;;;;;91.73;34.00;;;-5.40;99.90;;;;;;5053443;28;20067;-28
2022/12/13 01:08:17;;;;;;;96.60;32.77;;;-5.40;99.90;;;;;;5053082;28;20037;-28
2022/12/13 01:10:44;;;;;;;88.23;30.77;;;-5.50;99.90;;;;;;5053111;28;20037;-27
2022/12/13 01:13:11;;;;;;;96.73;31.77;;;-5.50;99.90;;;;;;5053632;28;20114;-27
2022/12/13 01:15:43;;;;;;;83.53;31.30;;;-5.50;99.90;;;;;;5053027;28;20098;-28
2022/12/13 01:18:13;;;;;;;88.75;31.67;;;-5.50;99.90;;;;;;5053019;28;20045;-27
2022/12/13 01:20:39;;;;;;;85.30;29.10;;;-5.60;99.90;;;;;;5051802;28;20091;-27
2022/12/13 01:23:05;;;;;;;82.20;31.17;;;-5.70;99.90;;;;;;5052886;28;20448;-28
2022/12/13 01:25:32;;;;;;;80.30;30.57;;;-5.60;99.90;;;;;;5051936;28;20548;-27
2022/12/13 01:27:59;;;;;;;78.67;28.97;;;-5.60;99.90;;;;;;5057028;28;20399;-28
2022/12/13 01:30:25;;;;;;;78.93;29.60;;;-5.50;99.90;;;;;;5056519;28;20049;-27
2022/12/13 01:32:50;;;;;;;79.67;30.17;;;-5.60;99.90;;;;;;5056503;28;20537;-27
2022/12/13 01:35:16;;;;;;;78.50;29.53;;;-5.40;99.90;;;;;;5056487;28;20044;-27
2022/12/13 01:37:42;;;;;;;83.57;32.20;;;-5.60;99.90;;;;;;5055574;28;20049;-27
2022/12/13 01:40:09;;;;;;;82.40;31.07;;;-5.60;99.90;;;;;;5055415;28;20498;-27
2022/12/13 01:42:38;;;;;;;88.37;33.50;;;-5.60;99.90;;;;;;5056365;28;20120;-27
2022/12/13 01:45:23;;;;;;;89.30;32.10;;;-5.60;99.90;;;;;;5055604;28;20087;-27
2022/12/13 01:47:53;;;;;;;82.60;31.13;;;-5.60;99.90;;;;;;5055181;28;20131;-27
2022/12/13 01:50:29;;;;;;;72.50;29.33;;;-5.60;99.90;;;;;;5056818;28;20090;-27
2022/12/13 01:52:55;;;;;;;76.23;29.77;;;-5.60;99.90;;;;;;5056466;28;20056;-27
2022/12/13 01:55:23;;;;;;;72.93;29.63;;;-5.60;99.90;;;;;;5056151;28;20080;-27
2022/12/13 01:57:50;;;;;;;83.30;31.77;;;-5.50;99.90;;;;;;5056043;28;20049;-27
2022/12/13 02:00:16;;;;;;;79.97;29.27;;;-5.60;99.90;;;;;;5055671;28;20492;-27
2022/12/13 02:02:43;;;;;;;76.30;29.90;;;-5.50;99.90;;;;;;5055980;28;20052;-27
2022/12/13 02:05:26;;;;;;;79.23;30.57;;;-5.50;99.90;;;;;;5055914;28;20483;-27
2022/12/13 02:07:52;;;;;;;97.18;33.47;;;-5.50;99.90;;;;;;5056526;28;20463;-27
2022/12/13 02:10:18;;;;;;;80.30;30.47;;;-5.50;99.90;;;;;;5056112;28;20060;-27
2022/12/13 02:12:44;;;;;;;80.67;31.50;;;-5.50;99.90;;;;;;5054568;28;20059;-27
2022/12/13 02:15:13;;;;;;;78.47;29.53;;;-5.50;99.90;;;;;;5055574;28;20049;-27
2022/12/13 02:17:54;;;;;;;78.33;30.53;;;-5.40;99.90;;;;;;5055674;28;20084;-27
2022/12/13 02:20:49;;;;;;;75.23;28.63;;;-5.50;99.90;;;;;;5056421;28;20083;-27
2022/12/13 02:23:39;;;;;;;77.47;29.87;;;-5.50;99.90;;;;;;5055789;28;20049;-27
2022/12/13 02:26:19;;;;;;;79.53;30.73;;;-5.50;99.90;;;;;;5055550;28;20091;-27
2022/12/13 02:29:22;;;;;;;79.17;30.53;;;-5.50;99.90;;;;;;5054502;28;20135;-27
2022/12/13 02:31:57;;;;;;;62.33;25.40;;;-5.50;99.90;;;;;;5056243;28;20049;-27
2022/12/13 02:34:54;;;;;;;79.37;31.37;;;-5.40;99.90;;;;;;5055431;28;20085;-28
2022/12/13 02:37:27;;;;;;;81.47;29.77;;;-5.40;99.90;;;;;;5055033;28;20056;-27
2022/12/13 02:39:59;;;;;;;78.40;29.63;;;-5.40;99.90;;;;;;5055186;28;20533;-27
2022/12/13 02:42:33;;;;;;;73.13;31.67;;;-5.40;99.90;;;;;;5055256;28;20127;-27
2022/12/13 02:45:02;;;;;;;75.30;29.50;;;-5.60;99.90;;;;;;5055802;28;20052;-27
2022/12/13 02:47:31;;;;;;;76.67;30.10;;;-5.60;99.90;;;;;;5055110;28;20086;-27
2022/12/13 02:50:01;;;;;;;84.70;30.43;;;-5.60;99.90;;;;;;5055588;28;20059;-27
2022/12/13 02:52:30;;;;;;;78.27;28.67;;;-5.70;99.90;;;;;;5055052;28;20045;-27
2022/12/13 02:54:57;;;;;;;76.03;28.20;;;-5.70;99.90;;;;;;5053980;28;20099;-27
2022/12/13 02:57:38;;;;;;;74.07;28.37;;;-5.70;99.90;;;;;;5054236;28;20122;-27
2022/12/13 03:00:07;;;;;;;66.13;27.20;;;-5.80;99.90;;;;;;5054828;28;20517;-27
2022/12/13 03:02:40;;;;;;;71.33;28.17;;;-5.80;99.90;;;;;;5055351;28;20045;-27
2022/12/13 03:08:13;;;;;;;75.03;29.10;;;-5.90;99.90;;;;;;5054969;28;20170;-27
2022/12/13 03:10:56;;;;;;;72.88;28.65;;;-5.90;99.90;;;;;;5055274;28;20123;-27
2022/12/13 03:13:53;;;;;;;75.47;28.75;;;-6.00;99.90;;;;;;5053814;28;20445;-27
2022/12/13 03:16:32;;;;;;;71.23;28.77;;;-5.90;99.90;;;;;;5052282;28;20119;-28
2022/12/13 03:19:00;;;;;;;68.67;26.83;;;-5.90;99.90;;;;;;5055387;28;20098;-27
2022/12/13 03:21:26;;;;;;;69.97;27.90;;;-6.00;99.90;;;;;;5054367;28;20037;-27
2022/12/13 03:23:52;;;;;;;62.33;26.37;;;-6.00;99.90;;;;;;5037079;28;20052;-27
2022/12/13 03:26:22;;;;;;;66.80;27.47;;;-6.00;99.90;;;;;;5054361;28;20391;-27
2022/12/13 03:28:49;;;;;;;65.97;27.30;;;-5.90;99.90;;;;;;5054746;28;20088;-27
2022/12/13 03:31:15;;;;;;;72.93;29.27;;;-5.90;99.90;;;;;;5053171;28;20054;-27
2022/12/13 03:33:41;;;;;;;71.37;28.70;;;-5.90;99.90;;;;;;5054841;28;20467;-27
2022/12/13 03:36:08;;;;;;;73.80;29.60;;;-6.00;99.90;;;;;;5055011;28;20052;-27
2022/12/13 03:38:34;;;;;;;66.80;28.17;;;-6.00;99.90;;;;;;5053193;28;20048;-27
2022/12/13 03:41:04;;;;;;;61.13;26.43;;;-6.00;99.90;;;;;;5054339;28;20372;-28
2022/12/13 03:43:30;;;;;;;61.87;27.63;;;-6.00;99.90;;;;;;5053692;28;20139;-27
2022/12/13 03:45:55;;;;;;;65.07;27.20;;;-6.00;99.90;;;;;;5053743;28;20131;-27
2022/12/13 03:48:22;;;;;;;69.67;28.17;;;-6.00;99.90;;;;;;5052799;28;20041;-27
2022/12/13 03:50:48;;;;;;;70.33;29.50;;;-6.00;99.90;;;;;;5052731;28;20549;-27
2022/12/13 03:53:14;;;;;;;63.27;26.13;;;-6.00;99.90;;;;;;5052747;28;20110;-28
2022/12/13 03:55:39;;;;;;;70.07;26.10;;;-6.00;99.90;;;;;;5053934;28;20044;-27
2022/12/13 03:58:05;;;;;;;71.30;28.97;;;-6.00;99.90;;;;;;5052706;28;20037;-27
2022/12/13 04:00:31;;;;;;;71.53;29.13;;;-6.00;99.90;;;;;;5053208;28;20383;-28
2022/12/13 04:02:57;;;;;;;70.13;29.03;;;-6.10;99.90;;;;;;5052843;28;20048;-27
2022/12/13 04:05:22;;;;;;;60.27;25.57;;;-6.10;99.90;;;;;;5052278;28;20041;-27
2022/12/13 04:07:48;;;;;;;59.73;25.27;;;-6.10;99.90;;;;;;5053715;28;20049;-27
2022/12/13 04:10:14;;;;;;;63.10;24.93;;;-6.10;99.90;;;;;;5036229;28;20060;-27
2022/12/13 04:15:24;;;;;;;68.67;26.77;;;-6.10;99.90;;;;;;5052661;28;20053;-27
2022/12/13 04:17:50;;;;;;;67.13;26.17;;;-6.10;99.90;;;;;;5053609;28;20051;-27
2022/12/13 04:20:16;;;;;;;60.00;25.73;;;-6.10;99.90;;;;;;5035885;28;20105;-27
2022/12/13 04:22:42;;;;;;;63.23;26.30;;;-6.10;99.90;;;;;;5053326;28;20364;-27
2022/12/13 04:25:07;;;;;;;69.00;25.90;;;-6.10;99.90;;;;;;5053588;28;20052;-27
2022/12/13 04:27:33;;;;;;;60.10;27.90;;;-6.10;99.90;;;;;;5035506;28;20621;-26
2022/12/13 04:29:59;;;;;;;67.33;27.40;;;-6.10;99.90;;;;;;5054900;28;20060;-27
2022/12/13 04:32:24;;;;;;;65.10;25.43;;;-6.10;99.90;;;;;;5054011;28;20095;-27
2022/12/13 04:34:50;;;;;;;59.13;25.43;;;-6.10;99.90;;;;;;5053441;28;20095;-27
2022/12/13 04:37:16;;;;;;;60.17;25.87;;;-6.20;99.90;;;;;;5052463;28;20387;-27
2022/12/13 04:39:41;;;;;;;65.10;26.93;;;-6.20;99.90;;;;;;5053839;28;20044;-27
2022/12/13 04:42:07;;;;;;;57.87;25.57;;;-6.20;99.90;;;;;;5053357;28;20049;-27
2022/12/13 04:44:33;;;;;;;60.60;26.00;;;-6.20;99.90;;;;;;5053367;28;20095;-28
2022/12/13 04:46:58;;;;;;;61.43;26.40;;;-6.20;99.90;;;;;;5052716;28;20091;-27
2022/12/13 04:49:24;;;;;;;64.70;26.10;;;-6.10;99.90;;;;;;5053291;28;20048;-27
2022/12/13 04:51:50;;;;;;;65.00;26.00;;;-6.20;99.90;;;;;;5053823;28;20044;-27
2022/12/13 04:54:16;;;;;;;65.10;27.53;;;-6.10;99.90;;;;;;5052531;28;20053;-27
2022/12/13 04:56:41;;;;;;;64.60;26.53;;;-6.10;99.90;;;;;;5053789;28;20084;-27
2022/12/13 04:59:07;;;;;;;57.10;25.20;;;-6.10;99.90;;;;;;5053463;28;20136;-27
2022/12/13 05:01:33;;;;;;;61.87;26.90;;;-6.10;99.90;;;;;;5054447;28;20094;-27
2022/12/13 05:04:00;;;;;;;61.33;26.03;;;-6.10;99.90;;;;;;5057367;28;20097;-27
2022/12/13 05:06:26;;;;;;;60.37;25.23;;;-6.00;99.90;;;;;;5057536;28;20045;-27
2022/12/13 05:08:52;;;;;;;59.70;25.00;;;-6.10;99.90;;;;;;5056034;28;20041;-27
2022/12/13 05:11:17;;;;;;;64.40;25.33;;;-6.10;99.90;;;;;;5057463;28;20123;-27
2022/12/13 05:13:43;;;;;;;55.83;24.43;;;-6.10;99.90;;;;;;5056589;28;20068;-27
2022/12/13 05:16:09;;;;;;;59.77;25.63;;;-6.00;99.90;;;;;;5056876;28;20052;-27
2022/12/13 05:18:36;;;;;;;57.67;24.97;;;-6.10;99.90;;;;;;5056800;28;20395;-28
2022/12/13 05:21:07;;;;;;;53.93;24.23;;;-6.10;99.90;;;;;;5039763;28;20045;-28
2022/12/13 05:23:33;;;;;;;63.27;25.73;;;-6.10;99.90;;;;;;5056725;28;20045;-27
2022/12/13 05:25:59;;;;;;;55.97;23.60;;;-6.10;99.90;;;;;;5057222;28;20044;-27
2022/12/13 05:28:27;;;;;;;65.37;25.77;;;-6.20;99.90;;;;;;5056252;28;20060;-27
2022/12/13 05:30:54;;;;;;;52.57;23.77;;;-6.20;99.90;;;;;;5056652;28;20051;-27
2022/12/13 05:33:21;;;;;;;58.60;25.60;;;-6.20;99.90;;;;;;5055589;28;20540;-27
2022/12/13 05:35:47;;;;;;;52.73;23.87;;;-6.30;99.90;;;;;;5055788;28;20048;-27
2022/12/13 05:38:13;;;;;;;60.97;25.93;;;-6.30;99.90;;;;;;5056511;28;20044;-27
2022/12/13 05:40:39;;;;;;;61.00;25.57;;;-6.30;99.90;;;;;;5056915;28;20041;-27
2022/12/13 05:43:05;;;;;;;64.80;25.40;;;-6.30;99.90;;;;;;5056387;28;20045;-27
2022/12/13 05:45:31;;;;;;;53.50;23.77;;;-6.30;99.90;;;;;;5055707;28;20057;-27
2022/12/13 05:47:57;;;;;;;55.67;24.30;;;-6.40;99.90;;;;;;5055583;28;20132;-27
2022/12/13 05:50:23;;;;;;;53.90;23.90;;;-6.40;99.90;;;;;;5056237;28;20048;-27
2022/12/13 05:52:49;;;;;;;58.03;25.83;;;-6.40;99.90;;;;;;5055028;28;20049;-27
2022/12/13 05:55:15;;;;;;;52.63;24.03;;;-6.40;99.90;;;;;;5056158;28;20040;-27
2022/12/13 05:57:40;;;;;;;54.43;26.07;;;-6.40;99.90;;;;;;5056098;28;20045;-27
2022/12/13 06:00:09;;;;;;;53.97;25.37;;;-6.40;99.90;;;;;;5056791;28;20041;-27
2022/12/13 06:02:38;;;;;;;64.87;26.37;;;-6.40;99.90;;;;;;5056238;28;20048;-27
2022/12/13 06:05:05;;;;;;;63.80;27.47;;;-6.30;99.90;;;;;;5055037;28;20131;-27
2022/12/13 06:07:31;;;;;;;61.37;26.40;;;-6.20;99.90;;;;;;5055557;28;20407;-27
2022/12/13 06:09:57;;;;;;;65.03;26.33;;;-5.70;99.90;;;;;;5054620;28;20124;-27
2022/12/13 06:12:22;;;;;;;65.73;25.30;;;-6.20;99.90;;;;;;5055243;28;20132;-27
2022/12/13 06:14:48;;;;;;;58.73;25.07;;;-6.20;99.90;;;;;;5054525;28;20041;-27
2022/12/13 06:17:14;;;;;;;53.20;25.17;;;-6.20;99.90;;;;;;5054741;28;20052;-27
2022/12/13 06:19:39;;;;;;;64.20;27.37;;;-6.20;99.90;;;;;;5055606;28;20097;-27
2022/12/13 06:22:05;;;;;;;63.53;27.87;;;-6.20;99.90;;;;;;5056431;28;20053;-27
2022/12/13 06:24:31;;;;;;;67.10;27.80;;;-6.20;99.90;;;;;;5037999;28;20045;-27
2022/12/13 06:26:58;;;;;;;62.87;28.53;;;-6.10;99.90;;;;;;5054640;28;20056;-27
2022/12/13 06:29:25;;;;;;;61.07;27.17;;;-6.10;99.90;;;;;;5055685;28;20106;-27
2022/12/13 06:32:01;;;;;;;65.80;26.67;;;-5.40;99.90;;;;;;5055363;28;20057;-27
2022/12/13 06:34:27;;;;;;;66.17;28.93;;;-6.20;99.90;;;;;;5054693;28;20049;-27
2022/12/13 06:36:53;;;;;;;58.80;28.13;;;-6.20;99.90;;;;;;5055238;28;20049;-27
2022/12/13 06:39:19;;;;;;;60.07;29.13;;;-6.20;99.90;;;;;;5054283;28;20052;-27
2022/12/13 06:41:44;;;;;;;53.67;27.17;;;-6.30;99.90;;;;;;5055212;28;20543;-27
2022/12/13 06:44:11;;;;;;;55.73;26.53;;;-6.30;99.90;;;;;;5055186;28;20400;-27
2022/12/13 06:46:37;;;;;;;53.07;25.23;;;-6.30;99.90;;;;;;5055937;28;20099;-27
2022/12/13 06:49:03;;;;;;;62.83;25.27;;;-6.40;99.90;;;;;;5055029;28;20053;-27
2022/12/13 06:51:29;;;;;;;57.57;25.60;;;-6.50;99.90;;;;;;5054133;28;20041;-27
2022/12/13 06:53:55;;;;;;;51.30;24.70;;;-6.50;99.90;;;;;;5054676;28;20055;-27
2022/12/13 06:56:21;;;;;;;59.83;24.53;;;-6.50;99.90;;;;;;5054587;28;20048;-27
2022/12/13 06:58:47;;;;;;;59.27;25.97;;;-6.50;99.90;;;;;;5055149;28;20046;-27
2022/12/13 07:01:16;;;;;;;51.60;25.90;;;-6.50;99.90;;;;;;5037027;28;20049;-26
2022/12/13 07:03:42;;;;;;;62.00;26.17;;;-6.40;99.90;;;;;;5054618;28;20448;-26
2022/12/13 07:06:14;;;;;;;58.63;27.83;;;-6.40;99.90;;;;;;5054697;28;20045;-26
2022/12/13 07:08:41;;;;;;;62.63;27.90;;;-6.30;99.90;;;;;;5054685;28;20087;-27
2022/12/13 07:11:11;;;;;;;67.17;29.60;;;-6.30;99.90;;;;;;5055501;28;20114;-26
2022/12/13 07:13:37;;;;;;;60.90;27.60;;;-6.20;99.90;;;;;;5054002;28;20048;-26
2022/12/13 07:16:03;;;;;;;59.87;28.40;;;-6.30;99.90;;;;;;5054319;28;20122;-27
2022/12/13 07:18:29;;;;;;;56.63;24.97;;;-6.30;99.90;;;;;;5053605;28;20124;-26
2022/12/13 07:20:54;;;;;;;62.40;27.77;;;-6.30;99.90;;;;;;5055249;28;20049;-26
2022/12/13 07:23:20;;;;;;;56.77;26.17;;;-6.30;99.90;;;;;;5054782;28;20051;-26
2022/12/13 07:25:52;;;;;;;59.80;26.63;;;-6.30;99.90;;;;;;5036748;28;20453;-26
2022/12/13 07:28:19;;;;;;;59.58;27.20;;;-6.30;99.90;;;;;;5054012;28;20045;-25
2022/12/13 07:30:45;;;;;;;60.73;25.63;;;-6.30;99.90;;;;;;5054354;28;20045;-26
2022/12/13 07:33:12;;;;;;;55.90;25.07;;;-6.30;99.90;;;;;;5053348;28;20124;-26
2022/12/13 07:35:38;;;;;;;56.43;25.20;;;-6.40;99.90;;;;;;5053368;28;20056;-26
2022/12/13 07:38:08;;;;;;;66.63;25.77;;;-6.40;99.90;;;;;;5054198;28;20056;-26
2022/12/13 07:40:35;;;;;;;54.67;24.33;;;-6.40;99.90;;;;;;5054159;28;20494;-26
2022/12/13 07:43:01;;;;;;;56.00;25.57;;;-6.40;99.90;;;;;;5052907;28;20128;-26
2022/12/13 07:45:27;;;;;;;53.83;24.53;;;-6.40;99.90;;;;;;5054018;28;20047;-26
2022/12/13 07:47:53;;;;;;;54.80;24.90;;;-6.40;99.90;;;;;;5053972;28;20402;-26
2022/12/13 07:50:19;;;;;;;52.83;24.50;;;-6.40;99.90;;;;;;5054747;28;20464;-26
2022/12/13 07:52:48;;;;;;;57.10;26.13;;;-6.20;99.90;;;;;;5053803;28;20080;-26
2022/12/13 07:55:15;;;;;;;58.33;25.00;;;-6.30;99.90;;;;;;5053819;28;20045;-25
2022/12/13 07:57:41;;;;;;;53.67;24.53;;;-6.20;99.90;;;;;;5054563;28;20045;-26
2022/12/13 08:00:07;;;;;;;54.60;24.60;;;-6.20;99.90;;;;;;5053417;28;20060;-26
2022/12/13 08:02:33;;;;;;;60.60;27.53;;;-6.20;99.90;;;;;;5052872;28;20052;-26
2022/12/13 08:04:58;;;;;;;53.67;25.00;;;-6.20;99.90;;;;;;5052513;28;20483;-26
2022/12/13 08:07:24;;;;;;;64.30;27.27;;;-6.10;99.90;;;;;;5053678;28;20131;-26
2022/12/13 08:09:50;;;;;;;56.80;26.43;;;-6.10;99.90;;;;;;5053971;28;20124;-26
2022/12/13 08:12:15;;;;;;;57.87;27.53;;;-6.10;99.90;;;;;;5053691;28;20049;-26
2022/12/13 08:14:41;;;;;;;60.87;24.97;;;-6.00;99.90;;;;;;5052977;28;20049;-26
2022/12/13 08:17:07;;;;;;;56.87;26.90;;;-6.00;99.90;;;;;;5053505;28;20045;-26
2022/12/13 08:19:32;;;;;;;54.50;24.73;;;-6.00;99.90;;;;;;5053805;28;20399;-26
2022/12/13 08:21:58;;;;;;;65.23;27.27;;;-5.90;99.90;;;;;;5036232;28;20045;-26
2022/12/13 08:24:28;;;;;;;62.07;26.83;;;-5.90;99.90;;;;;;5053449;28;20048;-26
2022/12/13 08:26:59;;;;;;;63.67;28.23;;;-5.80;99.90;;;;;;5053430;28;20064;-26
2022/12/13 08:29:25;;;;;;;64.47;27.83;;;-5.70;99.90;;;;;;5053350;28;20068;-26
2022/12/13 08:31:51;;;;;;;64.27;26.87;;;-5.70;99.90;;;;;;5053112;28;20472;-26
2022/12/13 08:34:17;;;;;;;57.77;26.37;;;-5.60;99.90;;;;;;5052708;28;20048;-26
2022/12/13 08:36:43;;;;;;;62.10;27.57;;;-5.60;99.90;;;;;;5055049;28;20045;-26
2022/12/13 08:39:08;;;;;;;54.63;28.00;;;-5.50;99.90;;;;;;5058353;28;20055;-26
2022/12/13 08:41:34;;;;;;;50.70;26.27;;;-5.50;99.90;;;;;;5056182;28;20055;-26
2022/12/13 08:44:00;;;;;;;62.30;27.77;;;-5.50;99.90;;;;;;5056223;28;20044;-26
2022/12/13 08:46:25;;;;;;;63.50;29.40;;;-5.40;99.90;;;;;;5057097;28;20053;-27
2022/12/13 08:48:54;;;;;;;64.03;28.23;;;-5.40;99.90;;;;;;5056355;28;20127;-27
2022/12/13 08:51:23;;;;;;;61.87;27.90;;;-5.30;99.90;;;;;;5057329;28;20095;-26
2022/12/13 08:53:50;;;;;;;61.70;27.50;;;-5.20;99.90;;;;;;5057230;28;20056;-27
2022/12/13 08:56:17;;;;;;;65.80;29.80;;;-5.20;99.90;;;;;;5055956;28;20080;-27
2022/12/13 08:58:47;;;;;;;61.33;27.50;;;-5.20;99.90;;;;;;5057290;28;20490;-27
2022/12/13 09:01:13;;;;;;;63.23;30.13;;;-5.20;99.90;;;;;;5056149;28;20048;-27
2022/12/13 09:03:39;;;;;;;107.40;49.87;;;-5.20;99.90;;;;;;5057053;28;20441;-27
2022/12/13 09:06:10;;;;;;;83.03;41.07;;;-5.10;99.90;;;;;;5056994;28;20110;-26
2022/12/13 09:08:37;;;;;;;76.60;36.40;;;-5.10;99.90;;;;;;5057180;28;20041;-27
2022/12/13 09:11:03;;;;;;;77.67;37.73;;;-5.00;99.90;;;;;;5057387;28;20051;-26
2022/12/13 09:13:31;;;;;;;82.47;44.67;;;-5.00;99.90;;;;;;5056878;28;20049;-26
2022/12/13 09:15:58;;;;;;;77.23;37.37;;;-4.90;99.90;;;;;;5056610;28;20049;-27
2022/12/13 09:18:24;;;;;;;84.10;39.77;;;-4.80;99.90;;;;;;5056802;28;20124;-27
2022/12/13 09:20:50;;;;;;;88.63;38.43;;;-4.70;99.90;;;;;;5039710;28;20044;-27
2022/12/13 09:23:16;;;;;;;83.00;37.83;;;-4.50;99.90;;;;;;5056640;28;20482;-27
2022/12/13 09:25:42;;;;;;;89.33;43.07;;;-4.30;99.90;;;;;;5056558;28;20045;-27
2022/12/13 09:28:08;;;;;;;95.77;43.77;;;-4.20;99.90;;;;;;5056394;28;20127;-27
2022/12/13 09:30:37;;;;;;;81.37;37.23;;;-4.10;99.90;;;;;;5055498;28;20522;-27
2022/12/13 09:33:03;;;;;;;74.40;35.30;;;-4.10;99.90;;;;;;5056445;28;20057;-27
2022/12/13 09:35:29;;;;;;;85.67;39.43;;;-3.90;99.90;;;;;;5056450;28;20067;-27
2022/12/13 09:37:55;;;;;;;70.87;34.57;;;-3.90;99.90;;;;;;5056402;28;20053;-27
2022/12/13 09:40:26;;;;;;;67.27;31.50;;;-3.80;99.90;;;;;;5056616;28;20475;-27
2022/12/13 09:42:54;;;;;;;91.43;37.17;;;-3.70;99.90;;;;;;5055460;28;20052;-27
2022/12/13 09:45:20;;;;;;;74.87;35.00;;;-3.70;99.90;;;;;;5055343;28;20044;-27
2022/12/13 09:47:48;;;;;;;84.57;34.50;;;-3.70;99.90;;;;;;5055730;28;20041;-27
2022/12/13 09:50:19;;;;;;;69.50;32.90;;;-3.60;99.90;;;;;;5056254;28;20051;-27
2022/12/13 09:52:46;;;;;;;87.00;40.97;;;-3.60;99.90;;;;;;5055066;28;20049;-27
2022/12/13 09:55:22;;;;;;;72.70;37.70;;;-3.50;99.90;;;;;;5056178;28;20128;-27
2022/12/13 09:57:49;;;;;;;67.03;32.23;;;-3.50;99.90;;;;;;5056134;28;20098;-27
2022/12/13 10:00:18;;;;;;;68.10;32.80;;;-3.50;99.90;;;;;;5056521;28;20132;-27
2022/12/13 10:02:48;;;;;;;124.20;58.40;;;-3.40;99.90;;;;;;5055981;28;20072;-27
2022/12/13 10:05:32;;;;;;;230.97;115.57;;;-3.40;99.90;;;;;;5055875;28;20491;-27
2022/12/13 10:08:07;;;;;;;136.17;63.03;;;-3.40;99.90;;;;;;5055809;28;20060;-27
2022/12/13 10:10:32;;;;;;;97.47;47.20;;;-3.30;99.90;;;;;;5054305;28;20391;-28
2022/12/13 10:13:40;;;;;;;120.73;58.30;;;-3.30;99.90;;;;;;5054984;28;20048;-27
2022/12/13 10:16:14;;;;;;;82.33;43.50;;;-3.30;99.90;;;;;;5054577;28;20503;-27
2022/12/13 10:18:43;;;;;;;82.33;37.00;;;-3.20;99.90;;;;;;5037926;28;20087;-27
2022/12/13 10:21:19;;;;;;;73.50;35.80;;;-3.20;99.90;;;;;;5054350;28;20403;-27
2022/12/13 10:23:45;;;;;;;73.37;34.57;;;-3.10;99.90;;;;;;5055330;28;20052;-27
2022/12/13 10:26:12;;;;;;;74.53;34.93;;;-3.00;99.90;;;;;;5054620;28;20395;-27
2022/12/13 10:28:39;;;;;;;75.80;34.30;;;-3.00;99.90;;;;;;5054143;28;20064;-27
2022/12/13 10:31:06;;;;;;;76.47;34.43;;;-2.90;99.90;;;;;;5055560;28;20102;-27
2022/12/13 10:33:38;;;;;;;69.40;34.53;;;-2.90;99.90;;;;;;5055446;28;20037;-27
2022/12/13 10:36:06;;;;;;;73.53;33.43;;;-2.80;99.90;;;;;;5055993;28;20049;-29
2022/12/13 10:38:40;;;;;;;71.93;37.20;;;-2.70;99.90;;;;;;5055392;28;20041;-27
2022/12/13 10:41:52;;;;;;;69.90;33.10;;;-2.70;99.90;;;;;;5055180;28;20045;-27
2022/12/13 10:44:24;;;;;;;69.70;32.87;;;-2.60;99.90;;;;;;5052996;28;20053;-27
2022/12/13 10:47:11;;;;;;;75.00;34.50;;;-2.50;99.90;;;;;;5055279;28;20048;-28
2022/12/13 10:49:45;;;;;;;67.17;33.27;;;-2.30;99.90;;;;;;5053375;28;20053;-28
2022/12/13 10:52:33;;;;;;;72.43;34.07;;;-2.30;99.90;;;;;;5054154;28;20190;-27
2022/12/13 10:55:24;;;;;;;78.90;38.60;;;-2.20;99.90;;;;;;5054168;28;20041;-28
2022/12/13 10:58:08;;;;;;;75.40;35.33;;;-2.10;99.90;;;;;;5055019;28;20049;-28
2022/12/13 11:00:45;;;;;;;65.45;33.15;;;-2.00;99.90;;;;;;5053954;28;20041;-28
2022/12/13 11:03:31;;;;;;;70.40;33.30;;;-1.60;99.90;;;;;;5055761;28;20395;-28
2022/12/13 11:06:15;;;;;;;63.27;31.53;;;-1.90;99.90;;;;;;5055132;28;20101;-28
2022/12/13 11:08:40;;;;;;;62.80;30.80;;;-1.80;99.90;;;;;;5054861;28;20106;-28
2022/12/13 11:11:08;;;;;;;65.27;31.33;;;-1.80;99.90;;;;;;5054694;28;20037;-29
2022/12/13 11:13:40;;;;;;;59.43;30.07;;;-1.70;99.90;;;;;;5054710;28;20056;-28
2022/12/13 11:16:35;;;;;;;65.77;35.73;;;-1.70;99.90;;;;;;5054918;28;20049;-28
2022/12/13 11:19:48;;;;;;;68.70;37.50;;;-1.60;99.90;;;;;;5054703;28;20127;-28
2022/12/13 11:22:24;;;;;;;65.70;36.85;;;-1.50;99.90;;;;;;4980180;28;20072;-28
2022/12/13 11:24:57;;;;;;;58.50;30.70;;;-1.50;99.90;;;;;;4996088;28;20104;-28
2022/12/13 11:27:29;;;;;;;;;;;-1.50;99.90;;;;;;5040045;28;20068;-28
2022/12/13 11:30:08;;;;;;;54.67;23.30;;;-1.50;99.90;;;;;;5053991;28;19920;-28
2022/12/13 11:32:37;;;;;;;57.07;26.03;;;-1.40;99.90;;;;;;5054339;28;20049;-28
2022/12/13 11:35:30;;;;;;;56.47;28.00;;;-1.40;99.90;;;;;;5053655;28;20146;-29
2022/12/13 11:37:56;;;;;;;;;;;-1.40;99.90;;;;;;5054948;28;20045;-28
2022/12/13 11:40:40;;;;;;;47.70;25.03;;;-1.30;99.90;;;;;;5054415;28;19927;-29
2022/12/13 11:43:31;;;;;;;49.77;26.30;;;-1.30;99.90;;;;;;5053767;28;20494;-28
2022/12/13 11:46:01;;;;;;;49.93;26.30;;;-1.20;99.90;;;;;;5054067;28;20045;-28
2022/12/13 11:48:48;;;;;;;55.93;28.40;;;-1.20;99.90;;;;;;5054600;28;20041;-29
2022/12/13 11:51:20;;;;;;;49.43;25.90;;;-1.20;99.90;;;;;;5054645;28;20119;-28
2022/12/13 11:54:16;;;;;;;50.08;26.25;;;-1.20;99.90;;;;;;5054294;28;20045;-29
2022/12/13 11:56:43;;;;;;;42.90;23.60;;;-1.10;99.90;;;;;;5053979;28;20041;-30
2022/12/13 11:59:24;;;;;;;48.37;26.20;;;-1.00;99.90;;;;;;5053853;28;20049;-29
2022/12/13 12:02:09;;;;;;;49.07;25.60;;;-1.00;99.90;;;;;;5053817;28;20044;-29
2022/12/13 12:04:42;;;;;;;50.10;25.60;;;-0.90;99.90;;;;;;5054673;28;20080;-29
2022/12/13 12:07:14;;;;;;;;;;;-0.80;99.90;;;;;;5054192;28;20395;-30
2022/12/13 12:09:52;;;;;;;48.87;25.47;;;-0.80;99.90;;;;;;5053625;28;19921;-29
2022/12/13 12:12:35;;;;;;;44.40;25.17;;;-0.70;99.90;;;;;;5053626;28;20076;-29
2022/12/13 12:15:16;;;;;;;39.30;23.40;;;-0.60;99.90;;;;;;5053669;28;20048;-29
2022/12/13 12:17:42;;;;;;;35.97;20.97;;;-0.60;99.90;;;;;;5054489;28;20079;-29
2022/12/13 12:20:13;;;;;;;38.73;22.10;;;-0.60;99.90;;;;;;5053228;28;20491;-29
2022/12/13 12:23:12;;;;;;;41.90;20.53;;;-0.50;99.90;;;;;;5053525;28;20047;-29
2022/12/13 12:25:52;;;;;;;35.45;20.52;;;-0.40;99.90;;;;;;5053614;28;20041;-30
2022/12/13 12:28:31;;;;;;;37.30;17.77;;;0.00;99.90;;;;;;5053492;28;20098;-30
2022/12/13 12:31:27;;;;;;;32.22;18.42;;;0.40;99.90;;;;;;5053483;28;20041;-32
2022/12/13 12:34:21;;;;;;;29.23;17.70;;;0.80;99.90;;;;;;5054298;28;20110;-31
2022/12/13 12:37:11;;;;;;;25.85;14.70;;;1.20;99.90;;;;;;5052859;28;20053;-32
2022/12/13 12:40:01;;;;;;;38.80;25.73;;;1.60;99.90;;;;;;5054151;28;20059;-32
2022/12/13 12:42:38;;;;;;;92.80;55.15;;;1.80;99.90;;;;;;5053649;28;20094;-33
2022/12/13 12:45:29;;;;;;;37.95;26.10;;;1.90;99.90;;;;;;5052665;28;20053;-33
2022/12/13 12:48:31;;;;;;;24.15;14.77;;;1.90;99.90;;;;;;5053320;28;20494;-34
2022/12/13 12:51:08;;;;;;;21.75;13.80;;;1.90;99.90;;;;;;5053359;28;20087;-34